createdAt,value
2022-07-29T00:01:41.037Z,14.71
2022-07-29T00:04:07.975Z,14.65
2022-07-29T00:06:34.850Z,14.59
2022-07-29T00:09:02.002Z,14.55
2022-07-29T00:11:29.045Z,14.50
2022-07-29T00:13:55.913Z,14.47
2022-07-29T00:16:22.832Z,14.41
2022-07-29T00:18:52.522Z,14.37
2022-07-29T00:21:19.365Z,14.34
2022-07-29T00:23:46.808Z,14.30
2022-07-29T00:26:13.728Z,14.27
2022-07-29T00:28:40.668Z,14.21
2022-07-29T00:31:07.586Z,14.18
2022-07-29T00:33:36.914Z,14.13
2022-07-29T00:36:03.995Z,14.11
2022-07-29T00:38:30.841Z,14.08
2022-07-29T00:40:59.901Z,14.11
2022-07-29T00:43:26.855Z,14.05
2022-07-29T00:45:53.813Z,14.01
2022-07-29T00:48:20.745Z,13.95
2022-07-29T00:50:47.585Z,13.92
2022-07-29T00:53:14.572Z,13.87
2022-07-29T00:55:41.606Z,13.83
2022-07-29T00:58:10.457Z,13.76
2022-07-29T01:00:37.975Z,13.73
2022-07-29T01:03:07.623Z,13.69
2022-07-29T01:05:49.980Z,13.65
2022-07-29T01:08:20.786Z,13.64
2022-07-29T01:10:48.106Z,13.61
2022-07-29T01:13:17.778Z,13.61
2022-07-29T01:15:49.449Z,13.59
2022-07-29T01:18:30.067Z,13.56
2022-07-29T01:21:06.750Z,13.50
2022-07-29T01:23:52.099Z,13.49
2022-07-29T01:26:20.391Z,13.46
2022-07-29T01:28:51.524Z,13.40
2022-07-29T01:31:38.556Z,13.38
2022-07-29T01:34:40.740Z,13.34
2022-07-29T01:37:12.319Z,13.31
2022-07-29T01:39:39.670Z,13.30
2022-07-29T01:42:08.307Z,13.27
2022-07-29T01:44:43.330Z,13.26
2022-07-29T01:47:12.905Z,13.25
2022-07-29T01:49:41.034Z,13.24
2022-07-29T01:52:12.742Z,13.20
2022-07-29T01:55:09.943Z,13.25
2022-07-29T01:57:37.384Z,13.26
2022-07-29T02:00:05.991Z,13.20
2022-07-29T02:02:39.260Z,13.17
2022-07-29T02:05:09.080Z,13.20
2022-07-29T02:07:37.286Z,13.17
2022-07-29T02:10:07.360Z,13.21
2022-07-29T02:12:35.684Z,13.22
2022-07-29T02:15:23.007Z,13.23
2022-07-29T02:17:55.340Z,13.21
2022-07-29T02:20:22.898Z,13.23
2022-07-29T02:22:49.908Z,13.23
2022-07-29T02:25:17.566Z,13.22
2022-07-29T02:27:44.352Z,13.22
2022-07-29T02:30:11.896Z,13.22
2022-07-29T02:32:38.925Z,13.25
2022-07-29T02:35:08.227Z,13.26
2022-07-29T02:37:35.217Z,13.29
2022-07-29T02:40:02.040Z,13.30
2022-07-29T02:42:30.492Z,13.34
2022-07-29T02:44:59.936Z,13.37
2022-07-29T02:47:41.926Z,13.38
2022-07-29T02:50:16.949Z,13.42
2022-07-29T02:53:00.209Z,13.48
2022-07-29T02:55:34.339Z,13.51
2022-07-29T02:58:09.327Z,13.57
2022-07-29T03:00:38.317Z,13.62
2022-07-29T03:03:06.323Z,13.70
2022-07-29T03:05:33.119Z,13.77
2022-07-29T03:08:03.982Z,13.83
2022-07-29T03:10:30.965Z,13.91
2022-07-29T03:12:58.372Z,13.97
2022-07-29T03:15:28.721Z,14.04
2022-07-29T03:17:56.741Z,14.17
2022-07-29T03:20:24.408Z,14.21
2022-07-29T03:22:51.279Z,14.24
2022-07-29T03:25:18.768Z,14.28
2022-07-29T03:27:46.472Z,14.32
2022-07-29T03:30:18.357Z,14.35
2022-07-29T03:32:49.901Z,14.37
2022-07-29T03:35:20.388Z,14.40
2022-07-29T03:37:47.357Z,14.40
2022-07-29T03:40:38.208Z,14.45
2022-07-29T03:43:08.217Z,14.51
2022-07-29T03:45:35.292Z,14.55
2022-07-29T03:48:07.131Z,14.61
2022-07-29T03:50:35.381Z,14.67
2022-07-29T03:53:03.956Z,14.74
2022-07-29T03:55:32.620Z,14.83
2022-07-29T03:57:59.911Z,14.91
2022-07-29T04:00:26.883Z,14.98
2022-07-29T04:02:53.894Z,15.06
2022-07-29T04:05:20.779Z,15.14
2022-07-29T04:07:47.927Z,15.24
2022-07-29T04:13:00.870Z,15.38
2022-07-29T04:15:31.446Z,15.35
2022-07-29T04:18:00.012Z,15.36
2022-07-29T04:20:27.121Z,15.38
2022-07-29T04:22:55.357Z,15.42
2022-07-29T04:25:23.279Z,15.53
2022-07-29T04:28:08.502Z,15.64
2022-07-29T04:30:35.679Z,15.79
2022-07-29T04:33:03.237Z,15.85
2022-07-29T04:35:30.640Z,15.87
2022-07-29T04:38:05.582Z,15.98
2022-07-29T04:40:35.447Z,16.02
2022-07-29T04:43:06.071Z,16.13
2022-07-29T04:45:33.171Z,16.21
2022-07-29T04:48:01.290Z,16.26
2022-07-29T04:50:42.408Z,16.34
2022-07-29T04:53:09.364Z,16.46
2022-07-29T04:55:39.062Z,16.50
2022-07-29T04:58:06.134Z,16.57
2022-07-29T05:00:33.499Z,16.60
2022-07-29T05:03:01.062Z,16.60
2022-07-29T05:05:28.010Z,16.55
2022-07-29T05:07:57.718Z,16.51
2022-07-29T05:10:30.927Z,16.58
2022-07-29T05:12:57.856Z,16.78
2022-07-29T05:15:24.801Z,16.94
2022-07-29T05:17:54.894Z,17.06
2022-07-29T05:20:27.102Z,17.04
2022-07-29T05:22:54.075Z,17.17
2022-07-29T05:25:21.044Z,17.14
2022-07-29T05:30:31.533Z,17.28
2022-07-29T05:32:58.447Z,17.53
2022-07-29T05:35:25.259Z,17.85
2022-07-29T05:37:53.275Z,18.03
2022-07-29T05:40:20.228Z,18.28
2022-07-29T05:42:50.044Z,18.26
2022-07-29T05:45:17.060Z,18.14
2022-07-29T05:47:44.146Z,17.93
2022-07-29T05:52:51.951Z,17.84
2022-07-29T05:55:18.991Z,18.07
2022-07-29T05:57:46.699Z,18.22
2022-07-29T06:00:13.910Z,18.33
2022-07-29T06:02:40.895Z,18.22
2022-07-29T06:05:10.621Z,18.24
2022-07-29T06:07:50.869Z,18.40
2022-07-29T06:10:20.120Z,18.60
2022-07-29T06:12:50.979Z,18.47
2022-07-29T06:15:20.790Z,18.73
2022-07-29T06:17:59.099Z,18.91
2022-07-29T06:20:30.915Z,19.04
2022-07-29T06:22:58.230Z,18.95
2022-07-29T06:25:25.039Z,19.06
2022-07-29T06:27:52.112Z,19.18
2022-07-29T06:30:18.934Z,19.12
2022-07-29T06:32:48.410Z,19.17
2022-07-29T06:38:09.582Z,19.42
2022-07-29T06:41:01.284Z,19.50
2022-07-29T06:43:31.029Z,19.63
2022-07-29T06:45:59.358Z,19.63
2022-07-29T06:51:22.154Z,20.06
2022-07-29T06:53:59.648Z,20.22
2022-07-29T06:56:29.562Z,20.27
2022-07-29T06:58:56.460Z,20.41
2022-07-29T07:01:31.941Z,20.50
2022-07-29T07:03:59.388Z,20.25
2022-07-29T07:06:26.703Z,20.43
2022-07-29T07:08:53.685Z,20.42
2022-07-29T07:11:20.606Z,20.67
2022-07-29T07:13:47.565Z,20.60
2022-07-29T07:18:56.104Z,20.58
2022-07-29T07:21:22.985Z,20.22
2022-07-29T07:23:49.812Z,20.32
2022-07-29T07:26:16.723Z,20.59
2022-07-29T07:28:43.801Z,20.68
2022-07-29T07:31:10.785Z,20.80
2022-07-29T07:33:37.629Z,20.86
2022-07-29T07:36:04.542Z,20.96
2022-07-29T07:38:31.393Z,20.94
2022-07-29T07:40:58.205Z,21.03
2022-07-29T07:43:27.672Z,21.08
2022-07-29T07:45:54.515Z,20.99
2022-07-29T07:48:21.527Z,21.07
2022-07-29T07:50:50.420Z,21.38
2022-07-29T07:53:17.391Z,21.77
2022-07-29T07:56:09.437Z,22.48
2022-07-29T07:58:31.525Z,22.67
2022-07-29T08:00:58.434Z,21.86
2022-07-29T08:03:25.494Z,21.24
2022-07-29T08:05:52.951Z,21.18
2022-07-29T08:08:19.866Z,21.85
2022-07-29T08:11:00.596Z,22.36
2022-07-29T08:13:31.380Z,22.66
2022-07-29T08:16:13.225Z,22.49
2022-07-29T08:18:40.876Z,22.13
2022-07-29T08:21:07.812Z,22.29
2022-07-29T08:23:46.093Z,22.80
2022-07-29T08:26:15.886Z,22.46
2022-07-29T08:28:46.824Z,21.83
2022-07-29T08:31:22.206Z,22.05
2022-07-29T08:33:49.318Z,22.58
2022-07-29T08:36:16.200Z,23.18
2022-07-29T08:38:43.321Z,23.87
2022-07-29T08:41:10.364Z,24.47
2022-07-29T08:43:38.685Z,23.95
2022-07-29T08:46:09.499Z,23.36
2022-07-29T08:48:37.784Z,22.96
2022-07-29T08:51:11.896Z,23.67
2022-07-29T08:53:43.058Z,24.16
2022-07-29T08:56:12.878Z,24.54
2022-07-29T08:58:39.758Z,25.16
2022-07-29T09:01:07.539Z,24.57
2022-07-29T09:03:37.803Z,25.02
2022-07-29T09:06:04.958Z,25.07
2022-07-29T09:08:32.285Z,24.10
2022-07-29T09:10:59.578Z,23.53
2022-07-29T09:13:26.946Z,22.90
2022-07-29T09:15:53.947Z,23.23
2022-07-29T09:18:36.317Z,24.31
2022-07-29T09:21:37.334Z,24.80
2022-07-29T09:24:12.853Z,25.11
2022-07-29T09:26:43.812Z,25.12
2022-07-29T09:29:13.359Z,25.55
2022-07-29T09:31:41.302Z,24.39
2022-07-29T09:34:11.002Z,23.99
2022-07-29T09:39:37.705Z,24.49
2022-07-29T09:42:05.721Z,25.39
2022-07-29T09:44:45.178Z,26.28
2022-07-29T09:47:14.536Z,25.84
2022-07-29T09:49:56.122Z,24.84
2022-07-29T09:52:23.069Z,24.88
2022-07-29T09:54:50.066Z,25.90
2022-07-29T09:57:31.814Z,26.92
2022-07-29T10:00:01.787Z,27.55
2022-07-29T10:02:39.952Z,27.38
2022-07-29T10:05:09.415Z,27.53
2022-07-29T10:07:54.130Z,27.97
2022-07-29T10:10:34.910Z,28.19
2022-07-29T10:13:07.113Z,28.07
2022-07-29T10:15:40.171Z,27.81
2022-07-29T10:18:07.972Z,28.81
2022-07-29T10:20:35.130Z,28.15
2022-07-29T10:23:01.994Z,28.07
2022-07-29T10:25:33.327Z,27.26
2022-07-29T10:28:00.309Z,25.70
2022-07-29T10:30:27.517Z,24.84
2022-07-29T10:36:09.751Z,27.47
2022-07-29T10:38:49.119Z,28.63
2022-07-29T10:41:43.728Z,27.05
2022-07-29T10:44:17.117Z,25.61
2022-07-29T10:46:46.293Z,25.08
2022-07-29T10:49:15.616Z,24.81
2022-07-29T10:51:52.002Z,24.43
2022-07-29T10:54:48.765Z,23.92
2022-07-29T10:57:25.689Z,24.84
2022-07-29T11:00:11.852Z,24.95
2022-07-29T11:02:49.995Z,24.39
2022-07-29T11:05:21.800Z,24.11
2022-07-29T11:08:07.546Z,24.49
2022-07-29T11:10:41.164Z,24.17
2022-07-29T11:13:11.210Z,23.98
2022-07-29T11:16:08.467Z,23.98
2022-07-29T11:18:35.712Z,24.14
2022-07-29T11:21:03.754Z,24.08
2022-07-29T11:23:38.123Z,23.84
2022-07-29T11:26:12.731Z,23.91
2022-07-29T11:28:57.803Z,25.24
2022-07-29T11:31:36.744Z,27.48
2022-07-29T11:37:28.307Z,28.44
2022-07-29T11:40:01.476Z,26.84
2022-07-29T11:42:35.261Z,25.65
2022-07-29T11:45:42.876Z,26.15
2022-07-29T11:48:31.898Z,25.91
2022-07-29T11:50:55.005Z,27.77
2022-07-29T11:53:21.817Z,26.07
2022-07-29T11:55:51.095Z,25.59
2022-07-29T11:58:41.277Z,25.56
2022-07-29T12:01:08.987Z,26.53
2022-07-29T12:03:36.862Z,28.07
2022-07-29T12:06:08.046Z,29.03
2022-07-29T12:07:01.566Z,28.59
2022-07-29T12:08:40.972Z,30.07
2022-07-29T12:11:16.646Z,30.15
2022-07-29T12:13:43.594Z,30.70
2022-07-29T12:16:14.651Z,31.40
2022-07-29T12:18:41.720Z,30.41
2022-07-29T12:21:09.429Z,27.92
2022-07-29T12:23:40.858Z,28.41
2022-07-29T12:26:21.869Z,28.40
2022-07-29T12:28:52.821Z,27.14
2022-07-29T12:31:43.140Z,28.65
2022-07-29T12:34:08.656Z,30.33
2022-07-29T12:36:37.381Z,31.13
2022-07-29T12:39:04.523Z,29.79
2022-07-29T12:41:32.041Z,28.03
2022-07-29T12:43:59.250Z,28.82
2022-07-29T12:46:26.098Z,27.64
2022-07-29T12:48:57.573Z,26.78
2022-07-29T12:51:31.075Z,26.99
2022-07-29T12:54:12.668Z,27.06
2022-07-29T12:56:44.398Z,28.30
2022-07-29T12:59:18.788Z,27.67
2022-07-29T13:01:48.153Z,29.55
2022-07-29T13:04:30.814Z,31.36
2022-07-29T13:09:55.403Z,32.30
2022-07-29T13:12:22.268Z,31.74
2022-07-29T13:14:49.938Z,31.43
2022-07-29T13:17:21.853Z,32.10
2022-07-29T13:20:05.487Z,32.77
2022-07-29T13:22:36.981Z,33.21
2022-07-29T13:25:03.952Z,32.62
2022-07-29T13:27:33.384Z,31.56
2022-07-29T13:30:01.521Z,33.35
2022-07-29T13:32:31.473Z,33.68
2022-07-29T13:34:59.112Z,34.14
2022-07-29T13:37:26.978Z,34.35
2022-07-29T13:39:55.250Z,33.80
2022-07-29T13:42:22.716Z,32.03
2022-07-29T13:44:52.822Z,32.29
2022-07-29T13:47:22.666Z,33.41
2022-07-29T13:50:00.548Z,33.92
2022-07-29T13:52:29.597Z,34.64
2022-07-29T13:54:56.496Z,35.31
2022-07-29T13:57:23.407Z,35.15
2022-07-29T13:59:54.433Z,35.32
2022-07-29T14:02:25.466Z,34.27
2022-07-29T14:04:54.076Z,33.65
2022-07-29T14:07:21.214Z,33.87
2022-07-29T14:09:48.070Z,34.14
2022-07-29T14:12:15.117Z,34.34
2022-07-29T14:14:43.121Z,34.03
2022-07-29T14:17:10.145Z,34.00
2022-07-29T14:19:37.067Z,33.00
2022-07-29T14:22:08.653Z,32.90
2022-07-29T14:24:41.114Z,32.89
2022-07-29T14:27:10.337Z,33.62
2022-07-29T14:29:38.752Z,34.90
2022-07-29T14:32:06.602Z,34.48
2022-07-29T14:34:34.557Z,33.63
2022-07-29T14:37:06.421Z,33.87
2022-07-29T14:39:35.277Z,34.20
2022-07-29T14:42:04.457Z,33.98
2022-07-29T14:44:32.457Z,33.33
2022-07-29T14:47:00.728Z,33.29
2022-07-29T14:49:29.250Z,32.61
2022-07-29T14:51:56.541Z,30.85
2022-07-29T14:54:23.883Z,29.06
2022-07-29T14:56:51.996Z,29.57
2022-07-29T14:59:19.497Z,27.49
2022-07-29T15:01:46.346Z,26.30
2022-07-29T15:04:13.308Z,25.55
2022-07-29T15:06:40.154Z,25.16
2022-07-29T15:09:07.074Z,24.74
2022-07-29T15:11:38.266Z,24.51
2022-07-29T15:14:06.814Z,24.42
2022-07-29T15:16:34.217Z,24.21
2022-07-29T15:19:02.422Z,24.32
2022-07-29T15:21:29.360Z,25.24
2022-07-29T15:23:58.358Z,24.90
2022-07-29T15:26:25.317Z,25.69
2022-07-29T15:28:52.232Z,25.36
2022-07-29T15:31:20.148Z,25.11
2022-07-29T15:33:47.086Z,25.04
2022-07-29T15:36:30.321Z,25.27
2022-07-29T15:39:01.176Z,24.77
2022-07-29T15:41:27.996Z,24.67
2022-07-29T15:43:55.967Z,24.41
2022-07-29T15:46:41.343Z,24.11
2022-07-29T15:49:08.628Z,23.89
2022-07-29T15:51:35.626Z,23.73
2022-07-29T15:54:03.680Z,23.51
2022-07-29T15:56:32.867Z,25.53
2022-07-29T15:59:00.192Z,25.87
2022-07-29T16:01:28.704Z,24.71
2022-07-29T16:03:58.718Z,23.89
2022-07-29T16:06:26.130Z,23.38
2022-07-29T16:08:55.906Z,23.06
2022-07-29T16:11:31.662Z,22.87
2022-07-29T16:13:58.917Z,22.65
2022-07-29T16:16:29.290Z,22.53
2022-07-29T16:19:05.782Z,22.46
2022-07-29T16:21:35.403Z,22.24
2022-07-29T16:24:02.394Z,22.15
2022-07-29T16:26:29.308Z,22.24
2022-07-29T16:28:56.549Z,22.25
2022-07-29T16:31:24.066Z,22.12
2022-07-29T16:33:55.572Z,21.96
2022-07-29T16:36:24.095Z,21.95
2022-07-29T16:38:51.115Z,21.92
2022-07-29T16:41:19.355Z,21.75
2022-07-29T16:43:46.377Z,21.78
2022-07-29T16:46:18.387Z,21.82
2022-07-29T16:48:46.101Z,21.82
2022-07-29T16:51:14.414Z,21.67
2022-07-29T16:53:41.897Z,21.55
2022-07-29T16:56:12.933Z,21.48
2022-07-29T16:58:43.603Z,21.26
2022-07-29T17:01:14.191Z,21.12
2022-07-29T17:04:01.101Z,21.01
2022-07-29T17:06:29.599Z,20.98
2022-07-29T17:08:57.074Z,20.88
2022-07-29T17:11:52.630Z,20.66
2022-07-29T17:14:11.135Z,20.42
2022-07-29T17:16:38.164Z,20.44
2022-07-29T17:19:05.368Z,20.38
2022-07-29T17:21:32.319Z,20.29
2022-07-29T17:23:59.520Z,20.33
2022-07-29T17:29:08.561Z,20.31
2022-07-29T17:31:35.918Z,20.26
2022-07-29T17:34:03.202Z,20.23
2022-07-29T17:36:31.238Z,20.31
2022-07-29T17:39:06.006Z,20.32
2022-07-29T17:41:35.876Z,20.17
2022-07-29T17:44:03.064Z,20.15
2022-07-29T17:46:30.406Z,20.06
2022-07-29T17:49:00.172Z,19.98
2022-07-29T17:51:27.080Z,19.85
2022-07-29T17:53:54.210Z,19.84
2022-07-29T17:56:21.457Z,19.81
2022-07-29T17:58:48.457Z,19.72
2022-07-29T18:01:15.577Z,19.67
2022-07-29T18:03:43.231Z,19.57
2022-07-29T18:06:13.441Z,19.52
2022-07-29T18:08:40.488Z,19.63
2022-07-29T18:11:07.661Z,19.52
2022-07-29T18:13:36.675Z,19.40
2022-07-29T18:16:04.754Z,19.30
2022-07-29T18:18:31.898Z,19.26
2022-07-29T18:20:58.863Z,19.20
2022-07-29T18:23:26.316Z,19.17
2022-07-29T18:25:53.328Z,19.11
2022-07-29T18:28:23.114Z,19.12
2022-07-29T18:30:50.576Z,19.01
2022-07-29T18:33:21.878Z,18.89
2022-07-29T18:35:50.843Z,18.77
2022-07-29T18:38:18.045Z,18.62
2022-07-29T18:40:45.972Z,18.51
2022-07-29T18:43:13.121Z,18.49
2022-07-29T18:45:42.552Z,18.45
2022-07-29T18:48:12.754Z,18.36
2022-07-29T18:50:40.990Z,18.28
2022-07-29T18:53:08.026Z,18.22
2022-07-29T18:55:35.005Z,18.15
2022-07-29T18:58:02.083Z,18.08
2022-07-29T19:00:30.268Z,18.01
2022-07-29T19:02:57.407Z,17.94
2022-07-29T19:05:24.836Z,17.92
2022-07-29T19:07:51.880Z,17.95
2022-07-29T19:10:18.899Z,17.90
2022-07-29T19:12:45.816Z,17.87
2022-07-29T19:15:13.088Z,17.84
2022-07-29T19:17:48.976Z,17.84
2022-07-29T19:20:16.118Z,17.76
2022-07-29T19:22:43.037Z,17.70
2022-07-29T19:25:10.247Z,17.69
2022-07-29T19:27:37.874Z,17.72
2022-07-29T19:30:06.634Z,17.76
2022-07-29T19:32:36.288Z,17.67
2022-07-29T19:35:23.501Z,17.63
2022-07-29T19:37:51.042Z,17.57
2022-07-29T19:40:18.236Z,17.53
2022-07-29T19:42:54.381Z,17.53
2022-07-29T19:45:21.686Z,17.49
2022-07-29T19:47:48.859Z,17.39
2022-07-29T19:50:15.761Z,17.36
2022-07-29T19:52:43.272Z,17.41
2022-07-29T19:55:10.542Z,17.33
2022-07-29T19:57:41.196Z,17.22
2022-07-29T20:00:11.290Z,17.29
2022-07-29T20:02:42.044Z,17.39
2022-07-29T20:05:09.870Z,17.43
2022-07-29T20:07:37.529Z,17.32
2022-07-29T20:10:05.057Z,17.29
2022-07-29T20:12:32.152Z,17.25
2022-07-29T20:15:01.785Z,17.21
2022-07-29T20:17:30.602Z,17.15
2022-07-29T20:20:00.073Z,17.04
2022-07-29T20:22:27.173Z,16.95
2022-07-29T20:24:54.029Z,16.85
2022-07-29T20:27:23.823Z,16.84
2022-07-29T20:29:50.681Z,16.86
2022-07-29T20:32:17.763Z,16.81
2022-07-29T20:34:44.888Z,16.78
2022-07-29T20:37:13.509Z,16.80
2022-07-29T20:39:40.672Z,16.83
2022-07-29T20:42:07.718Z,16.82
2022-07-29T20:44:34.851Z,16.81
2022-07-29T20:47:03.240Z,16.80
2022-07-29T20:49:33.156Z,16.92
2022-07-29T20:52:00.132Z,16.98
2022-07-29T20:54:26.907Z,16.99
2022-07-29T20:56:53.847Z,17.00
2022-07-29T20:59:20.781Z,17.00
2022-07-29T21:01:47.767Z,17.04
2022-07-29T21:04:15.216Z,17.02
2022-07-29T21:06:42.202Z,16.98
2022-07-29T21:09:11.544Z,16.93
2022-07-29T21:11:44.509Z,16.86
2022-07-29T21:14:28.463Z,16.73
2022-07-29T21:16:56.047Z,16.64
2022-07-29T21:19:23.047Z,16.56
2022-07-29T21:21:50.042Z,16.52
2022-07-29T21:24:17.337Z,16.43
2022-07-29T21:27:11.020Z,16.35
2022-07-29T21:29:36.553Z,16.24
2022-07-29T21:32:03.574Z,16.15
2022-07-29T21:34:30.863Z,16.09
2022-07-29T21:36:57.881Z,15.98
2022-07-29T21:39:25.046Z,15.94
2022-07-29T21:41:52.141Z,15.83
2022-07-29T21:44:21.218Z,15.72
2022-07-29T21:46:48.249Z,15.69
2022-07-29T21:49:15.439Z,15.66
2022-07-29T21:51:42.719Z,15.60
2022-07-29T21:54:09.777Z,15.50
2022-07-29T21:56:37.310Z,15.42
2022-07-29T21:59:04.208Z,15.43
2022-07-29T22:01:39.603Z,15.48
2022-07-29T22:04:08.848Z,15.51
2022-07-29T22:06:35.810Z,15.53
2022-07-29T22:09:02.969Z,15.46
2022-07-29T22:11:31.889Z,15.44
2022-07-29T22:13:59.555Z,15.45
2022-07-29T22:16:26.515Z,15.43
2022-07-29T22:18:53.510Z,15.40
2022-07-29T22:21:20.657Z,15.38
2022-07-29T22:23:47.549Z,15.37
2022-07-29T22:26:14.555Z,15.35
2022-07-29T22:28:41.596Z,15.31
2022-07-29T22:31:08.499Z,15.27
2022-07-29T22:33:35.497Z,15.20
2022-07-29T22:36:02.983Z,15.16
2022-07-29T22:38:32.830Z,15.14
2022-07-29T22:41:01.346Z,15.03
2022-07-29T22:43:29.650Z,14.92
2022-07-29T22:45:56.523Z,14.82
2022-07-29T22:48:23.579Z,14.77
2022-07-29T22:50:50.424Z,14.72
2022-07-29T22:53:17.886Z,14.65
2022-07-29T22:55:45.871Z,14.59
2022-07-29T22:58:12.716Z,14.59
2022-07-29T23:00:40.107Z,14.63
2022-07-29T23:03:07.128Z,14.64
2022-07-29T23:05:34.044Z,14.53
2022-07-29T23:08:01.286Z,14.47
2022-07-29T23:10:28.339Z,14.47
2022-07-29T23:12:57.180Z,14.37
2022-07-29T23:15:24.547Z,14.28
2022-07-29T23:17:51.499Z,14.25
2022-07-29T23:20:19.202Z,14.25
2022-07-29T23:22:46.199Z,14.26
2022-07-29T23:25:13.153Z,14.31
2022-07-29T23:27:40.063Z,14.24
2022-07-29T23:30:07.129Z,14.20
2022-07-29T23:32:34.376Z,14.15
2022-07-29T23:35:01.204Z,14.15
2022-07-29T23:37:28.037Z,14.17
2022-07-29T23:39:55.188Z,14.10
2022-07-29T23:42:22.046Z,13.99
2022-07-29T23:44:48.845Z,13.96
2022-07-29T23:47:15.738Z,13.87
2022-07-29T23:49:43.754Z,13.86
2022-07-29T23:52:10.553Z,13.97
2022-07-29T23:54:37.479Z,13.90
2022-07-29T23:57:04.352Z,13.94
2022-07-29T23:59:31.287Z,13.97
